Time;durP1;ratioP1;P1;durP2;ratioP2;P2;SDS_P1;SDS_P2;PMS_P1;PMS_P2;Temp;Humidity;BMP_temperature;BMP_pressure;BME280_temperature;BME280_humidity;BME280_pressure;Samples;Min_cycle;Max_cycle;Signal;HPM_P1;HPM_P2
2023/05/09 00:03:46;;;;;;;4.47;2.17;;;;;;;0.00;0.00;73947.63;10598247;27;20411;-69
2023/05/09 00:08:48;;;;;;;4.43;2.28;;;;;;;0.00;0.00;73953.75;10592795;27;20045;-69
2023/05/09 00:13:49;;;;;;;4.78;1.95;;;;;;;0.00;0.00;73958.31;10594327;27;20043;-69
2023/05/09 00:18:51;;;;;;;4.35;1.90;;;;;;;0.00;0.00;73958.31;10590830;27;20038;-70
2023/05/09 00:23:53;;;;;;;4.88;2.20;;;;;;;0.00;0.00;73965.94;10587069;27;20043;-69
2023/05/09 00:28:54;;;;;;;4.97;2.10;;;;;;;0.00;0.00;73965.94;10616709;27;20047;-69
2023/05/09 00:33:56;;;;;;;5.25;2.13;;;;;;;0.00;0.00;73965.94;10611222;27;20418;-69
2023/05/09 00:38:57;;;;;;;4.88;2.45;;;;;;;0.00;0.00;73967.47;10619773;27;20039;-70
2023/05/09 00:43:59;;;;;;;4.95;2.30;;;;;;;0.00;0.00;73969.00;10597688;27;20051;-69
2023/05/09 00:49:01;;;;;;;4.68;2.00;;;;;;;0.00;0.00;73969.00;10570595;27;20124;-69
2023/05/09 00:54:02;;;;;;;4.85;1.63;;;;;;;0.00;0.00;73973.56;10618126;27;20043;-70
2023/05/09 00:59:05;;;;;;;7.30;2.95;;;;;;;0.00;0.00;73973.56;10603091;27;20041;-70
2023/05/09 01:04:06;;;;;;;3.50;1.80;;;;;;;0.00;0.00;73976.63;10586121;27;20054;-70
2023/05/09 01:09:21;;;;;;;3.67;1.90;;;;;;;0.00;0.00;73978.16;10591868;27;20057;-70
2023/05/09 01:14:43;;;;;;;4.10;1.95;;;;;;;0.00;0.00;73987.31;10593918;27;20050;-70
2023/05/09 01:19:58;;;;;;;4.68;1.80;;;;;;;0.00;0.00;73988.84;10601342;27;20035;-70
2023/05/09 01:25:00;;;;;;;4.22;1.80;;;;;;;0.00;0.00;73988.84;10619054;27;20135;-70
2023/05/09 01:30:03;;;;;;;4.10;1.88;;;;;;;0.00;0.00;73991.88;10601507;27;20046;-69
2023/05/09 01:35:08;;;;;;;4.40;1.77;;;;;;;0.00;0.00;73988.84;10601320;27;20059;-69
2023/05/09 01:40:13;;;;;;;4.78;2.00;;;;;;;0.00;0.00;73999.50;10593136;27;20097;-69
2023/05/09 01:45:17;;;;;;;3.00;1.75;;;;;;;0.00;0.00;74005.63;10568590;27;20051;-69
2023/05/09 01:50:19;;;;;;;6.22;2.45;;;;;;;0.00;0.00;74010.19;10603751;27;20036;-70
2023/05/09 01:55:26;;;;;;;4.30;2.08;;;;;;;0.00;0.00;74011.72;10592763;27;20040;-70
2023/05/09 02:00:27;;;;;;;4.35;1.83;;;;;;;0.00;0.00;74017.81;10595065;27;20039;-69
2023/05/09 02:05:30;;;;;;;3.85;1.83;;;;;;;0.00;0.00;74017.81;10602882;27;20075;-69
2023/05/09 02:10:34;;;;;;;3.67;1.90;;;;;;;0.00;0.00;74020.88;10585142;27;20576;-70
2023/05/09 02:15:36;;;;;;;3.78;1.52;;;;;;;0.01;0.00;59042.03;10602078;27;20036;-70
2023/05/09 02:20:37;;;;;;;2.90;1.50;;;;;;;0.00;0.00;74028.50;10583534;27;20503;-70
2023/05/09 02:25:39;;;;;;;3.40;1.85;;;;;;;0.00;0.00;74030.03;10583438;27;20040;-70
2023/05/09 02:30:44;;;;;;;3.17;1.60;;;;;;;0.00;0.00;74034.63;10610475;27;20430;-70
2023/05/09 02:35:46;;;;;;;3.83;1.92;;;;;;;0.00;0.00;74036.13;10601367;27;20065;-70
2023/05/09 02:40:49;;;;;;;2.63;1.27;;;;;;;0.00;0.00;74042.25;10601578;27;20057;-69
2023/05/09 02:45:53;;;;;;;4.65;1.52;;;;;;;0.00;0.00;74060.56;10582573;27;20062;-70
2023/05/09 02:50:54;;;;;;;4.60;1.80;;;;;;;0.00;0.00;74060.56;10599877;27;20402;-70
2023/05/09 02:55:56;;;;;;;2.83;1.58;;;;;;;0.00;0.00;74062.06;10592472;27;20063;-69
2023/05/09 03:00:57;;;;;;;2.72;1.40;;;;;;;0.00;0.00;74063.59;10605184;27;20023;-70
2023/05/09 03:05:59;;;;;;;2.83;1.50;;;;;;;0.00;0.00;74063.59;10531902;28;20536;-70
2023/05/09 03:11:01;;;;;;;3.45;1.60;;;;;;;0.00;0.00;74063.59;10566422;27;20052;-70
2023/05/09 03:16:04;;;;;;;2.85;1.50;;;;;;;0.00;0.00;74066.66;10570581;27;20144;-69
2023/05/09 03:21:06;;;;;;;3.15;1.55;;;;;;;0.00;0.00;74063.59;10568224;27;20044;-70
2023/05/09 03:26:09;;;;;;;4.35;1.60;;;;;;;0.00;0.00;74063.59;10573524;27;20054;-70
2023/05/09 03:31:11;;;;;;;3.33;1.48;;;;;;;0.00;0.00;74069.72;10604427;27;20039;-69
2023/05/09 03:36:13;;;;;;;3.22;1.52;;;;;;;0.00;0.00;74075.81;10605932;27;20652;-69
2023/05/09 03:41:17;;;;;;;6.68;1.50;;;;;;;0.00;0.00;74081.91;10580978;27;20039;-69
2023/05/09 03:46:21;;;;;;;3.55;1.30;;;;;;;0.00;0.00;74088.03;10571185;27;20071;-69
2023/05/09 03:51:23;;;;;;;3.28;1.33;;;;;;;0.00;0.00;74086.50;10597695;27;20520;-69
2023/05/09 03:56:25;;;;;;;3.35;1.60;;;;;;;0.01;0.00;59042.03;10570629;27;20453;-69
2023/05/09 04:01:27;;;;;;;3.50;1.42;;;;;;;0.00;0.00;74088.03;10587335;27;20594;-69
2023/05/09 04:06:32;;;;;;;4.53;1.65;;;;;;;0.00;0.00;74084.97;10579555;27;20111;-69
2023/05/09 04:11:34;;;;;;;2.90;1.60;;;;;;;0.00;0.00;74080.38;10580061;27;20565;-69
2023/05/09 04:16:37;;;;;;;2.10;1.15;;;;;;;0.00;0.00;74066.66;10546851;28;20567;-69
2023/05/09 04:21:39;;;;;;;3.38;0.90;;;;;;;0.00;0.00;74060.56;10578769;27;20043;-69
2023/05/09 04:26:41;;;;;;;3.13;1.45;;;;;;;0.00;0.00;74045.28;10579159;28;20404;-69
2023/05/09 04:31:46;;;;;;;4.40;1.58;;;;;;;0.00;0.00;74034.63;10579477;28;20063;-69
2023/05/09 04:36:50;;;;;;;2.95;1.65;;;;;;;0.00;0.00;74026.97;10587739;28;20129;-69
2023/05/09 04:41:53;;;;;;;3.47;1.55;;;;;;;0.00;0.00;74017.81;10578764;28;20236;-68
2023/05/09 04:46:56;;;;;;;3.88;1.77;;;;;;;0.00;0.00;74011.72;10578660;28;20068;-69
2023/05/09 04:51:58;;;;;;;2.10;1.30;;;;;;;0.00;0.00;74005.63;10578927;28;20043;-69
2023/05/09 04:57:00;;;;;;;3.33;1.30;;;;;;;0.00;0.00;73994.94;10586428;28;20050;-69
2023/05/09 05:02:18;;;;;;;3.03;1.48;;;;;;;0.00;0.00;73978.16;10570573;27;20429;-69
2023/05/09 05:07:21;;;;;;;2.42;1.33;;;;;;;0.00;0.00;73969.00;10571242;28;20047;-69
2023/05/09 05:12:23;;;;;;;6.47;1.88;;;;;;;0.00;0.00;73959.84;10582610;27;20075;-69
2023/05/09 05:17:24;;;;;;;3.40;1.48;;;;;;;0.00;0.00;73953.75;10584382;27;20055;-69
2023/05/09 05:22:26;;;;;;;2.45;1.27;;;;;;;0.00;0.00;73936.94;10580457;27;20618;-69
2023/05/09 05:27:28;;;;;;;4.18;1.67;;;;;;;0.00;0.00;73918.66;10553641;27;20043;-69
2023/05/09 05:32:30;;;;;;;8.45;1.80;;;;;;;0.00;0.00;73892.69;10585128;27;20083;-69
2023/05/09 05:37:32;;;;;;;2.47;1.23;;;;;;;0.00;0.00;73865.25;10593363;27;20057;-69
2023/05/09 05:42:34;;;;;;;1.77;1.00;;;;;;;0.00;0.00;73849.97;10576531;27;20050;-71
2023/05/09 05:47:36;;;;;;;3.50;1.60;;;;;;;0.00;0.00;73827.09;10576281;27;20511;-69
2023/05/09 05:52:39;;;;;;;2.75;1.30;;;;;;;0.00;0.00;73798.09;10587875;27;20053;-69
2023/05/09 05:57:43;;;;;;;5.32;1.92;;;;;;;0.00;0.00;73776.75;10561521;27;20138;-69
2023/05/09 06:02:47;;;;;;;3.55;1.60;;;;;;;0.00;0.00;73752.31;10554280;28;20079;-69
2023/05/09 06:07:58;;;;;;;4.10;1.83;;;;;;;0.00;0.00;73723.34;10578448;27;20047;-69
2023/05/09 06:13:00;;;;;;;3.80;1.73;;;;;;;0.00;0.00;73697.38;10583618;27;20468;-68
2023/05/09 06:18:02;;;;;;;6.50;1.70;;;;;;;0.00;0.00;73697.38;10574966;27;20593;-69
2023/05/09 06:23:04;;;;;;;4.18;1.70;;;;;;;0.00;0.00;73657.72;10597658;27;20047;-69
2023/05/09 06:28:06;;;;;;;4.35;1.88;;;;;;;0.00;0.00;73640.94;10574636;27;20054;-69
2023/05/09 06:33:07;;;;;;;4.50;1.98;;;;;;;0.00;0.00;73607.38;10579425;27;20051;-69
2023/05/09 06:38:09;;;;;;;7.22;2.72;;;;;;;0.00;0.00;73575.31;10574836;27;20047;-69
2023/05/09 06:43:11;;;;;;;5.00;2.55;;;;;;;0.00;0.00;73550.91;10600959;27;20580;-69
2023/05/09 06:48:12;;;;;;;5.40;2.33;;;;;;;0.00;0.00;73523.44;10598762;27;20553;-69
2023/05/09 06:53:14;;;;;;;4.93;2.08;;;;;;;0.00;0.00;73511.22;10589136;27;20051;-70
2023/05/09 06:58:15;;;;;;;5.90;2.38;;;;;;;0.00;0.00;73511.22;10600374;27;20051;-70
2023/05/09 07:03:17;;;;;;;5.20;2.45;;;;;;;0.00;0.00;73502.06;10594502;27;20149;-70
2023/05/09 07:08:18;;;;;;;5.30;2.20;;;;;;;0.00;0.00;73456.31;10587609;27;20492;-69
2023/05/09 07:13:20;;;;;;;7.88;3.05;;;;;;;0.00;0.00;73427.31;10583633;27;20053;-69
2023/05/09 07:18:22;;;;;;;6.38;2.55;;;;;;;0.00;0.00;73395.25;10599825;27;20510;-70
2023/05/09 07:23:24;;;;;;;5.07;2.33;;;;;;;0.00;0.00;73361.69;10589721;27;20039;-69
2023/05/09 07:28:26;;;;;;;7.18;2.90;;;;;;;0.00;0.00;73346.44;10572706;27;20126;-69
2023/05/09 07:33:27;;;;;;;7.80;2.53;;;;;;;0.00;0.00;73308.28;10606803;27;20043;-70
2023/05/09 07:38:29;;;;;;;6.78;2.90;;;;;;;0.00;0.00;73221.31;10582364;27;20039;-69
2023/05/09 07:43:31;;;;;;;8.65;2.88;;;;;;;0.00;0.00;73135.88;10607976;27;20043;-69
2023/05/09 07:48:32;;;;;;;6.82;3.08;;;;;;;0.00;0.00;73138.91;10590688;27;20043;-69
2023/05/09 07:53:34;;;;;;;7.75;3.15;;;;;;;0.00;0.00;73216.72;10589995;27;20050;-69
2023/05/09 07:58:35;;;;;;;8.23;2.92;;;;;;;0.00;0.00;73163.31;10579642;27;20042;-69
2023/05/09 08:03:36;;;;;;;7.45;3.90;;;;;;;0.00;0.00;73154.19;10606573;27;20536;-70
2023/05/09 08:08:38;;;;;;;7.40;3.47;;;;;;;0.00;0.00;73111.44;10606165;27;20043;-70
2023/05/09 08:13:40;;;;;;;8.75;3.72;;;;;;;0.00;0.00;73022.94;10572066;27;20807;-69
2023/05/09 08:18:42;;;;;;;7.72;3.45;;;;;;;0.00;0.00;73003.13;10588288;27;20575;-69
2023/05/09 08:23:44;;;;;;;7.13;3.53;;;;;;;0.00;0.00;73018.38;10589717;27;20502;-69
2023/05/09 08:28:45;;;;;;;8.95;3.83;;;;;;;0.00;0.00;72987.84;10598345;28;20043;-70
2023/05/09 08:33:47;;;;;;;7.85;4.22;;;;;;;0.00;0.00;72977.16;10606587;28;20692;-69
2023/05/09 08:38:48;;;;;;;8.80;4.07;;;;;;;0.00;0.00;72992.44;10605937;28;20043;-69
2023/05/09 08:43:51;;;;;;;7.72;3.75;;;;;;;0.00;0.00;72992.44;10589875;27;20112;-69
2023/05/09 08:48:53;;;;;;;6.88;3.65;;;;;;;0.00;0.00;73033.63;10600049;27;20796;-69
2023/05/09 08:53:55;;;;;;;8.93;4.20;;;;;;;0.00;0.00;73024.47;10614133;27;20055;-70
2023/05/09 08:58:57;;;;;;;9.63;4.43;;;;;;;0.00;0.00;73004.63;10600743;27;20043;-69
2023/05/09 09:03:59;;;;;;;7.97;3.78;;;;;;;0.00;0.00;73003.13;10605427;27;20051;-70
2023/05/09 09:09:04;;;;;;;8.07;3.78;;;;;;;0.00;0.00;72980.22;10591166;27;20066;-69
2023/05/09 09:14:14;;;;;;;8.00;4.05;;;;;;;0.00;0.00;72922.25;10579622;27;20047;-69
2023/05/09 09:19:16;;;;;;;7.63;3.28;;;;;;;0.00;0.00;72897.81;10604918;27;20054;-69
2023/05/09 09:24:21;;;;;;;8.55;4.55;;;;;;;0.00;0.00;72891.72;10597980;27;20375;-69
2023/05/09 09:29:27;;;;;;;8.32;3.67;;;;;;;0.00;0.00;72906.97;10607367;27;20062;-70
2023/05/09 09:34:29;;;;;;;9.27;4.20;;;;;;;0.00;0.00;72874.94;10590407;27;20359;-70
2023/05/09 09:39:31;;;;;;;8.40;3.85;;;;;;;0.00;0.00;72910.03;10600976;27;20076;-69
2023/05/09 09:44:33;;;;;;;7.38;3.50;;;;;;;0.00;0.00;72890.19;10586554;27;20051;-69
2023/05/09 09:49:34;;;;;;;8.43;4.10;;;;;;;0.00;0.00;72864.25;10605064;27;20036;-69
2023/05/09 09:54:37;;;;;;;8.80;4.10;;;;;;;0.00;0.00;72839.84;10602127;27;20050;-70
2023/05/09 09:59:39;;;;;;;9.40;4.65;;;;;;;0.00;0.00;72823.06;10611185;27;20043;-69
2023/05/09 10:04:42;;;;;;;8.55;4.35;;;;;;;0.00;0.00;72832.22;10587538;27;20548;-70
2023/05/09 10:09:44;;;;;;;8.55;4.40;;;;;;;0.00;0.00;72845.94;10593207;27;20047;-70
2023/05/09 10:14:47;;;;;;;7.88;3.85;;;;;;;0.00;0.00;72845.94;10592895;27;20396;-71
2023/05/09 10:19:50;;;;;;;8.50;4.38;;;;;;;0.00;0.00;72810.84;10593220;27;20051;-70
2023/05/09 10:25:11;;;;;;;9.30;4.53;;;;;;;0.00;0.00;72784.91;10593541;27;20498;-70
2023/05/09 10:30:21;;;;;;;13.32;4.00;;;;;;;0.00;0.00;72714.72;10569021;28;20056;-69
2023/05/09 10:35:28;;;;;;;;;;;;;;;0.00;0.00;72716.25;10552913;28;20055;-70
2023/05/09 10:40:31;;;;;;;8.52;3.72;;;;;;;0.00;0.00;72696.41;10559872;28;19926;-69
2023/05/09 10:45:33;;;;;;;7.70;4.03;;;;;;;0.00;0.00;72740.66;10559038;28;20035;-69
2023/05/09 10:50:36;;;;;;;7.40;3.72;;;;;;;0.00;0.00;72726.94;10562293;27;20036;-69
2023/05/09 10:55:54;;;;;;;7.35;3.42;;;;;;;0.00;0.00;72781.84;10542173;27;20063;-69
2023/05/09 11:00:57;;;;;;;7.95;3.47;;;;;;;0.00;0.00;72711.66;10515686;28;20488;-70
2023/05/09 11:05:59;;;;;;;7.53;3.80;;;;;;;0.00;0.00;72757.44;10551751;28;20478;-70
2023/05/09 11:11:06;;;;;;;9.57;4.28;;;;;;;0.00;0.00;72787.97;10565992;28;20043;-69
2023/05/09 11:16:09;;;;;;;7.95;4.10;;;;;;;0.00;0.00;72769.66;10530127;28;20143;-69
2023/05/09 11:21:11;;;;;;;8.13;3.63;;;;;;;0.00;0.00;72778.81;10556557;28;20043;-68
2023/05/09 11:26:13;;;;;;;6.45;3.25;;;;;;;0.00;0.00;72778.81;10554714;28;21997;-69
2023/05/09 11:31:17;;;;;;;10.43;3.33;;;;;;;0.00;0.00;72809.31;10558191;28;20036;-70
2023/05/09 11:36:28;;;;;;;8.05;3.55;;;;;;;0.00;0.00;72821.53;10544150;28;20508;-70
2023/05/09 11:41:31;;;;;;;6.88;3.40;;;;;;;0.00;0.00;72827.63;10560245;28;20039;-70
2023/05/09 11:46:32;;;;;;;7.45;3.30;;;;;;;0.00;0.00;72804.75;10553461;28;20464;-70
2023/05/09 11:51:37;;;;;;;7.38;3.38;;;;;;;0.00;0.00;72797.13;10563813;28;20627;-70
2023/05/09 11:56:40;;;;;;;6.80;3.10;;;;;;;0.00;0.00;72791.00;10542645;28;20416;-69
2023/05/09 12:01:41;;;;;;;8.27;3.85;;;;;;;0.00;0.00;72824.59;10554160;28;20043;-69
2023/05/09 12:06:47;;;;;;;8.48;3.67;;;;;;;0.00;0.00;72849.00;10564812;28;20040;-70
2023/05/09 12:11:50;;;;;;;11.43;4.60;;;;;;;0.00;0.00;72849.00;10565675;28;20035;-70
2023/05/09 12:16:51;;;;;;;8.45;4.10;;;;;;;0.00;0.00;72842.91;10538503;28;20412;-70
2023/05/09 12:21:58;;;;;;;8.45;3.63;;;;;;;0.00;0.00;72818.47;10563023;28;20043;-69
2023/05/09 12:26:59;;;;;;;8.43;4.03;;;;;;;0.00;0.00;72803.22;10563522;28;20698;-69
2023/05/09 12:32:01;;;;;;;6.82;3.30;;;;;;;0.00;0.00;72787.97;10555733;28;20039;-70
2023/05/09 12:37:04;;;;;;;6.75;3.33;;;;;;;0.00;0.00;72783.38;10563411;28;20047;-70
2023/05/09 12:42:11;;;;;;;5.80;2.47;;;;;;;0.00;0.00;72777.28;10555158;28;20035;-69
2023/05/09 12:47:13;;;;;;;10.07;4.13;;;;;;;0.00;0.00;72740.66;10546811;28;20051;-70
2023/05/09 12:52:19;;;;;;;9.48;3.53;;;;;;;0.00;0.00;72748.28;10546307;28;20042;-70
2023/05/09 12:57:26;;;;;;;6.93;3.63;;;;;;;0.00;0.00;72726.94;10549497;28;20070;-70
2023/05/09 13:02:40;;;;;;;6.03;2.85;;;;;;;0.00;0.00;72739.13;10559663;28;20050;-69
2023/05/09 13:07:46;;;;;;;7.38;3.90;;;;;;;0.00;0.00;72733.03;10562356;27;20482;-70
2023/05/09 13:12:48;;;;;;;7.70;3.60;;;;;;;0.00;0.00;72748.28;10562260;27;20066;-69
2023/05/09 13:17:51;;;;;;;6.20;3.10;;;;;;;0.00;0.00;72746.75;10560745;27;20051;-70
2023/05/09 13:22:52;;;;;;;6.65;3.08;;;;;;;0.00;0.00;72757.44;10553674;28;20054;-69
2023/05/09 13:27:54;;;;;;;7.90;3.33;;;;;;;0.00;0.00;72739.13;10561887;27;20055;-70
2023/05/09 13:32:56;;;;;;;6.03;3.10;;;;;;;0.00;0.00;72711.66;10550239;28;20043;-70
2023/05/09 13:37:59;;;;;;;7.18;3.20;;;;;;;0.00;0.00;72745.25;10569243;28;20652;-70
2023/05/09 13:43:01;;;;;;;9.50;3.55;;;;;;;0.00;0.00;72740.66;10561352;28;20051;-71
2023/05/09 13:48:03;;;;;;;5.70;3.28;;;;;;;0.00;0.00;72743.72;10544335;27;20067;-70
2023/05/09 13:53:04;;;;;;;6.72;3.22;;;;;;;0.00;0.00;72766.59;10567645;27;20054;-70
2023/05/09 13:58:06;;;;;;;5.88;2.92;;;;;;;0.00;0.00;72752.88;10549801;28;20454;-70
2023/05/09 14:03:08;;;;;;;6.05;2.95;;;;;;;0.00;0.00;72742.19;10550979;28;20039;-70
2023/05/09 14:08:09;;;;;;;6.22;3.10;;;;;;;0.00;0.00;72729.97;10567450;27;20137;-70
2023/05/09 14:13:11;;;;;;;6.93;3.20;;;;;;;0.00;0.00;72714.72;10536096;28;20051;-70
2023/05/09 14:18:13;;;;;;;7.57;3.67;;;;;;;0.00;0.00;72707.09;10564738;28;20055;-69
2023/05/09 14:23:19;;;;;;;11.10;3.28;;;;;;;0.00;0.00;72702.50;10554809;27;20047;-70
2023/05/09 14:28:21;;;;;;;6.85;3.22;;;;;;;0.00;0.00;72705.56;10548879;27;20067;-69
2023/05/09 14:33:22;;;;;;;6.03;3.17;;;;;;;0.00;0.00;72719.28;10534601;28;20047;-69
2023/05/09 14:38:24;;;;;;;8.48;3.70;;;;;;;0.00;0.00;72729.97;10544460;28;20070;-69
2023/05/09 14:43:26;;;;;;;8.15;3.28;;;;;;;0.00;0.00;72739.13;10567238;27;20036;-70
2023/05/09 14:48:27;;;;;;;7.32;3.40;;;;;;;0.00;0.00;72849.00;10547338;28;20071;-72
2023/05/09 14:53:29;;;;;;;5.70;2.78;;;;;;;0.00;0.00;72949.72;10533354;28;20038;-71
2023/05/09 14:58:33;;;;;;;6.70;2.75;;;;;;;0.00;0.00;73015.31;10553774;28;20047;-75
2023/05/09 15:03:34;;;;;;;5.65;2.47;;;;;;;0.00;0.00;73035.16;10556589;28;20043;-75
2023/05/09 15:08:36;;;;;;;5.03;2.15;;;;;;;0.00;0.00;73036.69;10531377;28;20157;-74
2023/05/09 15:13:37;;;;;;;1.85;1.17;;;;;;;0.00;0.00;73058.03;10550162;27;20529;-71
2023/05/09 15:18:44;;;;;;;1.80;0.93;;;;;;;0.00;0.00;73047.38;10566377;27;20048;-70
2023/05/09 15:23:45;;;;;;;1.77;0.80;;;;;;;0.00;0.00;73033.63;10539891;28;20040;-73
2023/05/09 15:28:47;;;;;;;3.33;1.45;;;;;;;0.00;0.00;73016.84;10565368;27;20039;-73
2023/05/09 15:33:49;;;;;;;2.15;1.05;;;;;;;0.00;0.00;72995.47;10555606;28;20032;-74
2023/05/09 15:38:50;;;;;;;2.22;1.25;;;;;;;0.00;0.00;72983.28;10559398;27;20127;-74
2023/05/09 15:43:53;;;;;;;3.78;1.58;;;;;;;0.00;0.00;72968.00;10553354;28;20047;-74
2023/05/09 15:48:56;;;;;;;2.72;1.63;;;;;;;0.00;0.00;72943.59;10554606;28;20503;-74
2023/05/09 15:53:58;;;;;;;4.93;1.85;;;;;;;0.00;0.00;72951.22;10553886;27;20055;-75
2023/05/09 15:59:00;;;;;;;3.95;1.88;;;;;;;0.00;0.00;72958.84;10552685;28;20058;-74
2023/05/09 16:04:01;;;;;;;3.22;1.60;;;;;;;0.00;0.00;72958.84;10561388;28;20062;-74
2023/05/09 16:09:03;;;;;;;2.97;1.50;;;;;;;0.00;0.00;72971.06;10554172;27;20426;-74
2023/05/09 16:14:08;;;;;;;3.78;2.13;;;;;;;0.00;0.00;72992.44;10553300;28;20058;-74
2023/05/09 16:19:10;;;;;;;4.03;2.00;;;;;;;0.00;0.00;73015.31;10547264;27;20052;-74
2023/05/09 16:24:11;;;;;;;3.38;1.95;;;;;;;0.00;0.00;73059.56;10546053;28;20043;-72
2023/05/09 16:29:13;;;;;;;4.93;2.25;;;;;;;0.00;0.00;73080.94;10554132;27;20055;-70
2023/05/09 16:34:14;;;;;;;5.60;2.60;;;;;;;0.00;0.00;73079.41;10550853;27;20063;-72
2023/05/09 16:39:16;;;;;;;6.03;2.88;;;;;;;0.00;0.00;73087.03;10543641;28;20046;-72
2023/05/09 16:44:17;;;;;;;5.30;2.40;;;;;;;0.00;0.00;73085.50;10554130;27;20355;-71
2023/05/09 16:49:19;;;;;;;5.65;2.70;;;;;;;0.00;0.00;73090.09;10555160;28;20411;-72
2023/05/09 16:54:21;;;;;;;4.72;2.40;;;;;;;0.00;0.00;73093.13;10554106;28;20411;-71
2023/05/09 16:59:23;;;;;;;7.22;3.42;;;;;;;0.00;0.00;73083.97;10554843;27;20063;-71
2023/05/09 17:04:25;;;;;;;5.22;2.78;;;;;;;0.00;0.00;73080.94;10554483;27;20032;-71
2023/05/09 17:09:27;;;;;;;6.78;3.20;;;;;;;0.00;0.00;73074.81;10560574;28;20059;-71
2023/05/09 17:14:28;;;;;;;7.00;3.10;;;;;;;0.00;0.00;73055.00;10542913;28;20044;-72
2023/05/09 17:19:30;;;;;;;5.60;2.53;;;;;;;0.00;0.00;73039.72;10542364;28;20048;-73
2023/05/09 17:24:33;;;;;;;6.75;2.83;;;;;;;0.00;0.00;73039.72;10553104;28;20036;-73
2023/05/09 17:29:35;;;;;;;14.27;3.55;;;;;;;0.00;0.00;73050.41;10553864;27;20182;-75
2023/05/09 17:34:37;;;;;;;10.27;3.25;;;;;;;0.00;0.00;73099.25;10545928;28;20032;-72
2023/05/09 17:39:41;;;;;;;6.28;2.30;;;;;;;0.00;0.00;73143.50;10555136;28;20058;-74
2023/05/09 17:44:42;;;;;;;5.15;2.42;;;;;;;0.00;0.00;73160.28;10554340;28;20032;-73
2023/05/09 17:49:45;;;;;;;6.63;2.97;;;;;;;0.00;0.00;73151.13;10554035;27;20335;-70
2023/05/09 17:54:46;;;;;;;6.45;3.15;;;;;;;0.00;0.00;73163.31;10557660;28;20050;-71
2023/05/09 17:59:50;;;;;;;6.68;3.00;;;;;;;0.00;0.00;73170.97;10543111;27;20043;-72
2023/05/09 18:04:52;;;;;;;6.28;3.17;;;;;;;0.00;0.00;73175.53;10556291;28;20640;-74
2023/05/09 18:09:54;;;;;;;16.33;3.13;;;;;;;0.00;0.00;73160.28;10530608;28;20071;-72
2023/05/09 18:14:56;;;;;;;7.60;3.08;;;;;;;0.00;0.00;73158.75;10557220;28;20482;-71
2023/05/09 18:19:58;;;;;;;6.65;3.10;;;;;;;0.00;0.00;73151.13;10548760;27;20060;-72
2023/05/09 18:25:00;;;;;;;8.52;3.58;;;;;;;0.00;0.00;73154.19;10550173;28;20047;-72
2023/05/09 18:30:02;;;;;;;9.80;3.83;;;;;;;0.00;0.00;73158.75;10543852;27;20039;-71
2023/05/09 18:35:04;;;;;;;6.53;3.13;;;;;;;0.00;0.00;73175.53;10545016;27;20048;-73
2023/05/09 18:40:09;;;;;;;6.32;2.67;;;;;;;0.00;0.00;73198.44;10559877;28;20051;-73
2023/05/09 18:45:11;;;;;;;6.50;3.10;;;;;;;0.00;0.00;73215.22;10545000;28;20384;-73
2023/05/09 18:50:13;;;;;;;6.38;2.97;;;;;;;0.00;0.00;73215.22;10540191;27;20144;-74
2023/05/09 18:55:18;;;;;;;5.95;2.47;;;;;;;0.00;0.00;73215.22;10547798;27;20846;-72
2023/05/09 19:00:20;;;;;;;5.90;2.78;;;;;;;0.00;0.00;73203.00;10549988;27;20046;-73
2023/05/09 19:05:21;;;;;;;5.03;2.67;;;;;;;0.00;0.00;73203.00;10542387;28;20487;-71
2023/05/09 19:10:23;;;;;;;7.20;3.28;;;;;;;0.00;0.00;73196.91;10556164;27;20973;-73
2023/05/09 19:15:24;;;;;;;7.60;3.10;;;;;;;0.00;0.00;73196.91;10544306;28;20044;-72
2023/05/09 19:20:28;;;;;;;6.03;3.38;;;;;;;0.00;0.00;73189.28;10539275;27;20209;-73
2023/05/09 19:25:32;;;;;;;8.50;3.95;;;;;;;0.00;0.00;73209.09;10556307;28;20035;-73
2023/05/09 19:30:34;;;;;;;6.88;3.28;;;;;;;0.00;0.00;73221.31;10539585;28;20090;-71
2023/05/09 19:35:37;;;;;;;6.45;3.15;;;;;;;0.00;0.00;73221.31;10556654;28;20032;-72
2023/05/09 19:40:40;;;;;;;5.80;3.15;;;;;;;0.00;0.00;73225.88;10531064;28;20523;-72
2023/05/09 19:45:41;;;;;;;5.90;2.83;;;;;;;0.00;0.00;73224.38;10538979;28;20501;-71
2023/05/09 19:50:44;;;;;;;10.02;3.47;;;;;;;0.00;0.00;73212.16;10535457;27;20078;-71
2023/05/09 19:55:46;;;;;;;7.85;3.55;;;;;;;0.00;0.00;73206.06;10522004;28;20044;-71
2023/05/09 20:00:48;;;;;;;6.30;3.05;;;;;;;0.00;0.00;73213.69;10538637;28;20044;-72
2023/05/09 20:05:50;;;;;;;5.97;3.20;;;;;;;0.00;0.00;73215.22;10535823;28;20047;-73
2023/05/09 20:10:51;;;;;;;7.78;3.08;;;;;;;0.00;0.00;73212.16;10548732;28;20039;-72
2023/05/09 20:15:54;;;;;;;5.55;2.92;;;;;;;0.00;0.00;73206.06;10542318;28;20465;-72
2023/05/09 20:20:55;;;;;;;8.18;3.15;;;;;;;0.00;0.00;73212.16;10551710;28;20040;-71
2023/05/09 20:25:57;;;;;;;5.75;2.53;;;;;;;0.00;0.00;73218.25;10555652;28;20040;-73
2023/05/09 20:30:59;;;;;;;5.35;2.75;;;;;;;0.00;0.00;73218.25;10534577;28;20442;-73
2023/05/09 20:36:00;;;;;;;5.03;2.53;;;;;;;0.00;0.00;73221.31;10556422;28;20126;-72
2023/05/09 20:41:02;;;;;;;6.97;2.70;;;;;;;0.00;0.00;73210.63;10552006;28;20044;-73
2023/05/09 20:46:04;;;;;;;5.68;2.58;;;;;;;0.00;0.00;73215.22;10562084;28;20654;-72
2023/05/09 20:51:06;;;;;;;5.43;2.50;;;;;;;0.00;0.00;73212.16;10565290;27;20047;-73
2023/05/09 20:56:09;;;;;;;6.22;2.85;;;;;;;0.00;0.00;73222.84;10542741;28;20044;-73
2023/05/09 21:01:11;;;;;;;6.50;2.88;;;;;;;0.00;0.00;73213.69;10538783;28;20423;-73
2023/05/09 21:06:13;;;;;;;6.05;2.42;;;;;;;0.00;0.00;73204.53;10569027;28;20059;-72
2023/05/09 21:11:15;;;;;;;6.22;2.70;;;;;;;0.00;0.00;73215.22;10556776;28;20515;-72
2023/05/09 21:16:16;;;;;;;5.40;2.53;;;;;;;0.00;0.00;73215.22;10554246;28;20048;-72
2023/05/09 21:21:18;;;;;;;5.72;2.97;;;;;;;0.00;0.00;73213.69;10551429;27;20093;-73
2023/05/09 21:26:21;;;;;;;5.68;2.53;;;;;;;0.00;0.00;73218.25;10546492;28;20048;-72
2023/05/09 21:31:23;;;;;;;7.13;3.00;;;;;;;0.00;0.00;73216.72;10539186;28;20463;-72
2023/05/09 21:36:25;;;;;;;4.78;2.35;;;;;;;0.00;0.00;73212.16;10555461;28;20048;-71
2023/05/09 21:41:26;;;;;;;7.82;3.08;;;;;;;0.00;0.00;73215.22;10553070;28;20048;-72
2023/05/09 21:46:31;;;;;;;5.32;2.70;;;;;;;0.00;0.00;73212.16;10570415;28;20050;-71
2023/05/09 21:51:34;;;;;;;9.00;3.20;;;;;;;0.00;0.00;73215.22;10540823;28;20527;-71
2023/05/09 21:56:35;;;;;;;6.68;2.95;;;;;;;0.00;0.00;73212.16;10536076;28;20094;-71
2023/05/09 22:01:37;;;;;;;6.85;3.30;;;;;;;0.00;0.00;73201.47;10546399;28;20044;-73
2023/05/09 22:06:41;;;;;;;6.43;3.00;;;;;;;0.00;0.00;73209.09;10564175;28;20047;-72
2023/05/09 22:11:42;;;;;;;5.72;2.78;;;;;;;0.00;0.00;73215.22;10549186;28;20492;-72
2023/05/09 22:16:44;;;;;;;8.70;3.53;;;;;;;0.00;0.00;73215.22;10529158;28;20079;-73
2023/05/09 22:21:47;;;;;;;6.43;3.05;;;;;;;0.00;0.00;73212.16;10551403;27;20048;-73
2023/05/09 22:26:49;;;;;;;7.18;3.30;;;;;;;0.00;0.00;73207.59;10544717;28;20641;-74
2023/05/09 22:31:50;;;;;;;6.65;3.30;;;;;;;0.00;0.00;73215.22;10542707;28;20048;-73
2023/05/09 22:36:53;;;;;;;8.80;3.28;;;;;;;0.00;0.00;73206.06;10548952;28;20697;-74
2023/05/09 22:41:55;;;;;;;7.63;3.40;;;;;;;0.00;0.00;73209.09;10537248;28;20036;-74
2023/05/09 22:46:57;;;;;;;6.70;3.17;;;;;;;0.00;0.00;73203.00;10555753;28;20035;-74
2023/05/09 22:51:59;;;;;;;6.50;3.00;;;;;;;0.00;0.00;73203.00;10545339;28;20441;-74
2023/05/09 22:57:01;;;;;;;6.68;2.72;;;;;;;0.00;0.00;73204.53;10554885;28;20046;-74
2023/05/09 23:02:03;;;;;;;7.15;3.10;;;;;;;0.00;0.00;73203.00;10541693;28;20044;-75
2023/05/09 23:07:05;;;;;;;7.63;3.42;;;;;;;0.00;0.00;73203.00;10532573;28;20055;-76
2023/05/09 23:12:09;;;;;;;7.68;3.47;;;;;;;0.00;0.00;73198.44;10551151;28;20044;-75
2023/05/09 23:17:10;;;;;;;6.47;2.88;;;;;;;0.00;0.00;73192.31;10561689;27;20043;-75
2023/05/09 23:22:12;;;;;;;5.65;2.55;;;;;;;0.00;0.00;73186.22;10553721;27;20583;-75
2023/05/09 23:27:13;;;;;;;6.25;2.90;;;;;;;0.00;0.00;73187.75;10547207;28;20500;-75
2023/05/09 23:32:15;;;;;;;6.40;3.20;;;;;;;0.00;0.00;73181.63;10538134;28;20043;-75
2023/05/09 23:37:18;;;;;;;7.93;3.53;;;;;;;0.00;0.00;73180.13;10521819;28;20055;-75
2023/05/09 23:42:19;;;;;;;7.47;3.05;;;;;;;0.00;0.00;73175.53;10522414;28;20048;-74
2023/05/09 23:47:21;;;;;;;6.70;3.38;;;;;;;0.00;0.00;73180.13;10546852;28;20044;-75
2023/05/09 23:52:22;;;;;;;9.23;3.65;;;;;;;0.00;0.00;73178.59;10549794;27;20047;-75
2023/05/09 23:57:25;;;;;;;8.68;3.90;;;;;;;0.00;0.00;73183.16;10537919;28;20046;-75
